createdAt,value
2018-07-09T00:01:42.527Z,1.23
2018-07-09T00:04:11.917Z,1.33
2018-07-09T00:06:41.169Z,1.50
2018-07-09T00:09:10.517Z,1.30
2018-07-09T00:11:39.858Z,1.30
2018-07-09T00:14:09.121Z,1.43
2018-07-09T00:16:38.466Z,1.20
2018-07-09T00:19:07.750Z,1.50
2018-07-09T00:21:37.159Z,1.00
2018-07-09T00:24:06.636Z,1.30
2018-07-09T00:26:36.565Z,1.47
2018-07-09T00:29:06.180Z,1.20
2018-07-09T00:31:35.886Z,1.53
2018-07-09T00:34:05.814Z,1.67
2018-07-09T00:36:35.237Z,1.20
2018-07-09T00:39:05.334Z,1.30
2018-07-09T00:41:35.237Z,1.33
2018-07-09T00:44:04.601Z,1.23
2018-07-09T00:46:33.879Z,1.13
2018-07-09T00:49:03.254Z,1.60
2018-07-09T00:51:32.795Z,1.50
2018-07-09T00:54:01.924Z,1.20
2018-07-09T00:56:31.130Z,1.50
2018-07-09T00:59:00.724Z,1.30
2018-07-09T01:01:30.050Z,1.70
2018-07-09T01:03:59.335Z,1.73
2018-07-09T01:06:28.570Z,1.50
2018-07-09T01:08:57.746Z,1.33
2018-07-09T01:11:38.109Z,1.57
2018-07-09T01:14:07.490Z,1.40
2018-07-09T01:16:36.726Z,1.17
2018-07-09T01:19:06.000Z,1.57
2018-07-09T01:21:35.438Z,1.27
2018-07-09T01:24:04.673Z,1.40
2018-07-09T01:26:33.920Z,1.47
2018-07-09T01:29:03.175Z,1.47
2018-07-09T01:31:32.412Z,1.57
2018-07-09T01:34:01.677Z,1.50
2018-07-09T01:36:30.920Z,1.47
2018-07-09T01:39:00.199Z,1.40
2018-07-09T01:41:30.632Z,1.33
2018-07-09T01:43:59.908Z,1.50
2018-07-09T01:46:29.246Z,1.40
2018-07-09T01:48:58.552Z,1.23
2018-07-09T01:51:27.870Z,1.70
2018-07-09T01:53:57.414Z,1.50
2018-07-09T01:56:26.649Z,1.50
2018-07-09T01:58:55.893Z,1.80
2018-07-09T02:01:25.131Z,1.30
2018-07-09T02:03:54.406Z,1.60
2018-07-09T02:06:23.735Z,1.60
2018-07-09T02:08:52.993Z,1.43
2018-07-09T02:11:22.259Z,1.80
2018-07-09T02:13:51.714Z,1.07
2018-07-09T02:16:20.947Z,1.60
2018-07-09T02:18:50.246Z,1.50
2018-07-09T02:21:19.651Z,2.10
2018-07-09T02:23:48.952Z,1.57
2018-07-09T02:26:18.374Z,1.90
2018-07-09T02:28:47.632Z,1.50
2018-07-09T02:31:17.000Z,2.27
2018-07-09T02:33:46.231Z,1.60
2018-07-09T02:36:15.642Z,1.63
2018-07-09T02:38:45.012Z,1.50
2018-07-09T02:41:14.260Z,1.67
2018-07-09T02:43:43.561Z,1.60
2018-07-09T02:46:12.861Z,1.80
2018-07-09T02:48:42.164Z,1.80
2018-07-09T02:51:11.474Z,1.50
2018-07-09T02:53:40.743Z,1.60
2018-07-09T02:56:10.174Z,1.80
2018-07-09T02:58:39.438Z,1.83
2018-07-09T03:01:08.944Z,1.70
2018-07-09T03:03:38.239Z,1.80
2018-07-09T03:06:07.595Z,1.97
2018-07-09T03:08:36.850Z,2.00
2018-07-09T03:11:06.406Z,1.80
2018-07-09T03:13:35.683Z,1.80
2018-07-09T03:16:04.982Z,1.67
2018-07-09T03:18:34.387Z,1.63
2018-07-09T03:21:03.763Z,1.87
2018-07-09T03:23:33.105Z,1.90
2018-07-09T03:26:02.347Z,1.77
2018-07-09T03:28:31.703Z,2.00
2018-07-09T03:31:00.986Z,1.73
2018-07-09T03:33:30.406Z,1.80
2018-07-09T03:35:59.667Z,1.90
2018-07-09T03:38:29.024Z,1.70
2018-07-09T03:40:58.249Z,2.03
2018-07-09T03:43:27.589Z,1.90
2018-07-09T03:45:56.956Z,2.13
2018-07-09T03:48:26.297Z,2.07
2018-07-09T03:50:55.570Z,1.67
2018-07-09T03:53:25.005Z,1.90
2018-07-09T03:55:54.445Z,2.20
2018-07-09T03:58:23.803Z,1.60
2018-07-09T04:00:53.063Z,1.80
2018-07-09T04:03:22.305Z,2.00
2018-07-09T04:05:51.567Z,2.27
2018-07-09T04:08:20.808Z,2.00
2018-07-09T04:10:50.203Z,1.93
2018-07-09T04:13:19.626Z,2.10
2018-07-09T04:15:48.987Z,2.03
2018-07-09T04:18:21.995Z,2.00
2018-07-09T04:20:51.288Z,2.20
2018-07-09T04:23:20.715Z,2.30
2018-07-09T04:25:50.073Z,2.20
2018-07-09T04:28:19.417Z,2.20
2018-07-09T04:30:49.043Z,2.30
2018-07-09T04:33:18.577Z,2.03
2018-07-09T04:35:47.823Z,2.10
2018-07-09T04:38:17.103Z,2.20
2018-07-09T04:40:46.423Z,2.30
2018-07-09T04:43:15.869Z,2.10
2018-07-09T04:45:45.219Z,2.40
2018-07-09T04:48:14.562Z,2.40
2018-07-09T04:50:43.810Z,2.40
2018-07-09T04:53:13.057Z,2.27
2018-07-09T04:55:42.384Z,2.17
2018-07-09T04:58:11.640Z,2.63
2018-07-09T05:00:40.999Z,2.43
2018-07-09T05:03:10.251Z,2.30
2018-07-09T05:05:39.667Z,2.40
2018-07-09T05:08:09.076Z,2.30
2018-07-09T05:10:38.304Z,2.17
2018-07-09T05:13:07.591Z,1.83
2018-07-09T05:15:36.821Z,2.20
2018-07-09T05:18:06.141Z,2.30
2018-07-09T05:20:35.745Z,2.40
2018-07-09T05:23:05.215Z,2.60
2018-07-09T05:25:34.532Z,2.00
2018-07-09T05:28:03.770Z,2.60
2018-07-09T05:30:33.140Z,2.10
2018-07-09T05:33:02.469Z,2.10
2018-07-09T05:35:31.809Z,2.00
2018-07-09T05:38:01.053Z,2.27
2018-07-09T05:40:30.298Z,2.50
2018-07-09T05:42:59.638Z,2.20
2018-07-09T05:45:28.809Z,2.30
2018-07-09T05:47:58.050Z,2.00
2018-07-09T05:50:27.350Z,1.80
2018-07-09T05:52:56.771Z,2.20
2018-07-09T05:55:26.034Z,2.43
2018-07-09T05:57:55.270Z,2.60
2018-07-09T06:00:24.582Z,2.40
2018-07-09T06:02:53.958Z,2.07
2018-07-09T06:05:23.344Z,2.23
2018-07-09T06:07:52.689Z,2.20
2018-07-09T06:10:21.948Z,2.10
2018-07-09T06:12:51.361Z,2.07
2018-07-09T06:15:20.659Z,1.90
2018-07-09T06:17:49.974Z,1.87
2018-07-09T06:20:19.359Z,1.80
2018-07-09T06:22:48.799Z,2.03
2018-07-09T06:25:18.044Z,2.00
2018-07-09T06:27:47.265Z,1.70
2018-07-09T06:30:16.881Z,2.10
2018-07-09T06:32:46.277Z,2.40
2018-07-09T06:35:15.535Z,2.03
2018-07-09T06:37:44.899Z,1.90
2018-07-09T06:40:14.238Z,1.97
2018-07-09T06:42:43.620Z,1.80
2018-07-09T06:45:12.966Z,2.07
2018-07-09T06:47:42.258Z,1.80
2018-07-09T06:50:11.577Z,2.00
2018-07-09T06:52:40.903Z,2.20
2018-07-09T06:55:10.292Z,1.93
2018-07-09T06:57:39.483Z,1.50
2018-07-09T07:00:08.893Z,1.93
2018-07-09T07:02:38.277Z,1.90
2018-07-09T07:05:07.697Z,1.90
2018-07-09T07:07:37.081Z,1.50
2018-07-09T07:10:06.422Z,1.77
2018-07-09T07:12:35.759Z,2.20
2018-07-09T07:15:05.105Z,1.80
2018-07-09T07:17:34.358Z,1.63
2018-07-09T07:20:03.744Z,2.10
2018-07-09T07:22:33.078Z,1.63
2018-07-09T07:25:02.414Z,1.70
2018-07-09T07:27:31.686Z,1.87
2018-07-09T07:30:00.938Z,1.90
2018-07-09T07:32:30.418Z,1.53
2018-07-09T07:34:59.857Z,2.00
2018-07-09T07:37:29.155Z,1.90
2018-07-09T07:39:58.528Z,1.63
2018-07-09T07:42:28.675Z,1.70
2018-07-09T07:44:58.093Z,1.73
2018-07-09T07:47:27.299Z,1.60
2018-07-09T07:49:56.655Z,1.83
2018-07-09T07:52:25.903Z,1.40
2018-07-09T07:54:55.264Z,1.50
2018-07-09T07:57:24.197Z,2.00
2018-07-09T07:59:53.179Z,1.73
2018-07-09T08:02:22.426Z,2.03
2018-07-09T08:04:51.827Z,1.57
2018-07-09T08:07:21.222Z,1.70
2018-07-09T08:09:50.606Z,1.70
2018-07-09T08:14:49.254Z,1.80
2018-07-09T08:17:18.501Z,2.37
2018-07-09T08:19:47.755Z,1.50
2018-07-09T08:22:16.992Z,1.80
2018-07-09T08:24:46.330Z,2.20
2018-07-09T08:27:15.643Z,1.53
2018-07-09T08:29:44.944Z,1.97
2018-07-09T08:32:14.211Z,2.00
2018-07-09T08:34:43.450Z,1.73
2018-07-09T08:37:12.803Z,1.60
2018-07-09T08:39:42.132Z,1.60
2018-07-09T08:42:11.395Z,2.07
2018-07-09T08:44:43.065Z,2.10
2018-07-09T08:47:12.730Z,2.50
2018-07-09T08:49:42.035Z,1.70
2018-07-09T08:52:11.513Z,1.47
2018-07-09T08:54:40.916Z,2.37
2018-07-09T08:57:10.171Z,1.83
2018-07-09T08:59:39.421Z,1.77
2018-07-09T09:02:08.678Z,2.07
2018-07-09T09:04:38.025Z,2.00
2018-07-09T09:07:07.421Z,1.43
2018-07-09T09:09:36.698Z,1.77
2018-07-09T09:12:06.024Z,1.90
2018-07-09T09:14:35.409Z,2.10
2018-07-09T09:17:04.605Z,2.13
2018-07-09T09:19:33.932Z,1.70
2018-07-09T09:22:03.226Z,1.50
2018-07-09T09:24:32.628Z,1.90
2018-07-09T09:27:02.033Z,1.90
2018-07-09T09:29:31.363Z,2.00
2018-07-09T09:32:00.694Z,1.93
2018-07-09T09:34:29.952Z,1.67
2018-07-09T09:36:59.231Z,1.97
2018-07-09T09:39:28.533Z,1.73
2018-07-09T09:41:58.040Z,1.50
2018-07-09T09:44:27.519Z,1.50
2018-07-09T09:46:56.798Z,1.73
2018-07-09T09:49:26.225Z,2.20
2018-07-09T09:51:55.490Z,1.60
2018-07-09T09:54:24.873Z,1.50
2018-07-09T09:56:54.223Z,1.50
2018-07-09T09:59:23.782Z,1.10
2018-07-09T10:01:53.524Z,1.20
2018-07-09T10:04:22.870Z,1.00
2018-07-09T10:06:52.142Z,1.43
2018-07-09T10:09:21.382Z,1.40
2018-07-09T10:11:50.628Z,0.97
2018-07-09T10:14:20.170Z,1.07
2018-07-09T10:16:49.512Z,1.00
2018-07-09T10:19:19.742Z,1.30
2018-07-09T10:21:50.202Z,1.13
2018-07-09T10:24:19.426Z,1.17
2018-07-09T10:26:49.849Z,1.13
2018-07-09T10:29:19.157Z,1.30
2018-07-09T10:31:48.327Z,1.27
2018-07-09T10:34:17.542Z,0.90
2018-07-09T10:36:46.733Z,1.33
2018-07-09T10:39:16.065Z,1.20
2018-07-09T10:48:51.249Z,1.10
2018-07-09T10:51:20.679Z,1.30
2018-07-09T10:53:51.079Z,1.20
2018-07-09T10:56:20.365Z,1.33
2018-07-09T10:58:49.632Z,1.07
2018-07-09T11:01:18.989Z,1.20
2018-07-09T11:03:48.738Z,1.30
2018-07-09T11:06:18.083Z,1.43
2018-07-09T11:08:47.901Z,1.47
2018-07-09T11:11:17.300Z,1.20
2018-07-09T11:13:46.564Z,1.53
2018-07-09T11:16:15.839Z,1.70
2018-07-09T11:18:45.118Z,1.27
2018-07-09T11:21:14.404Z,1.50
2018-07-09T11:23:43.671Z,1.43
2018-07-09T11:26:13.113Z,1.60
2018-07-09T11:28:42.733Z,2.33
2018-07-09T11:31:12.111Z,1.70
2018-07-09T11:33:41.365Z,1.40
2018-07-09T11:36:10.927Z,1.60
2018-07-09T11:38:40.274Z,1.23
2018-07-09T11:41:09.526Z,1.50
2018-07-09T11:43:38.805Z,1.23
2018-07-09T11:46:08.134Z,1.53
2018-07-09T11:48:37.481Z,1.20
2018-07-09T11:51:06.610Z,1.40
2018-07-09T11:53:35.885Z,1.40
2018-07-09T11:56:05.153Z,1.33
2018-07-09T11:58:34.441Z,1.37
2018-07-09T12:01:03.718Z,1.47
2018-07-09T12:03:32.995Z,1.30
2018-07-09T12:06:02.455Z,1.43
2018-07-09T12:08:31.776Z,1.60
2018-07-09T12:11:01.125Z,1.43
2018-07-09T12:13:30.609Z,1.10
2018-07-09T12:16:00.062Z,1.30
2018-07-09T12:18:29.306Z,1.20
2018-07-09T12:20:58.541Z,1.10
2018-07-09T12:23:28.077Z,0.80
2018-07-09T12:25:57.368Z,1.20
2018-07-09T12:28:26.593Z,1.03
2018-07-09T12:30:55.837Z,1.30
2018-07-09T12:33:25.136Z,1.27
2018-07-09T12:35:54.343Z,1.20
2018-07-09T12:38:23.713Z,1.17
2018-07-09T12:40:53.154Z,1.30
2018-07-09T12:43:22.407Z,1.37
2018-07-09T12:45:51.872Z,1.10
2018-07-09T12:48:21.214Z,1.43
2018-07-09T12:50:50.651Z,1.00
2018-07-09T12:53:19.963Z,0.90
2018-07-09T12:55:49.339Z,1.10
2018-07-09T12:58:18.680Z,1.23
2018-07-09T13:00:47.968Z,1.27
2018-07-09T13:03:17.235Z,1.57
2018-07-09T13:05:46.666Z,1.20
2018-07-09T13:08:16.064Z,1.30
2018-07-09T13:10:45.421Z,1.20
2018-07-09T13:13:14.655Z,1.43
2018-07-09T13:15:44.476Z,1.20
2018-07-09T13:18:13.764Z,1.30
2018-07-09T13:20:42.769Z,1.20
2018-07-09T13:23:11.737Z,1.33
2018-07-09T13:25:40.770Z,1.23
2018-07-09T13:28:09.787Z,1.40
2018-07-09T13:30:38.829Z,1.63
2018-07-09T13:33:07.804Z,1.47
2018-07-09T13:35:37.154Z,1.23
2018-07-09T13:38:06.649Z,1.57
2018-07-09T13:40:36.052Z,1.60
2018-07-09T13:43:05.418Z,1.30
2018-07-09T13:45:35.221Z,1.57
2018-07-09T13:48:04.602Z,1.07
2018-07-09T13:50:34.529Z,1.10
2018-07-09T13:53:03.907Z,1.27
2018-07-09T13:55:33.138Z,1.23
2018-07-09T13:58:02.484Z,1.07
2018-07-09T14:00:31.754Z,1.40
2018-07-09T14:03:01.094Z,1.50
2018-07-09T14:05:30.436Z,1.03
2018-07-09T14:07:59.774Z,1.30
2018-07-09T14:10:29.152Z,1.30
2018-07-09T14:12:59.270Z,1.10
2018-07-09T14:15:28.922Z,1.27
2018-07-09T14:17:59.043Z,1.20
2018-07-09T14:20:30.830Z,1.30
2018-07-09T14:23:00.773Z,1.17
2018-07-09T14:25:30.097Z,0.80
2018-07-09T14:27:59.507Z,1.20
2018-07-09T14:30:28.874Z,1.17
2018-07-09T14:32:58.133Z,1.00
2018-07-09T14:35:29.159Z,0.97
2018-07-09T14:37:58.382Z,1.00
2018-07-09T14:40:27.884Z,1.13
2018-07-09T14:42:57.242Z,1.20
2018-07-09T14:45:26.578Z,1.00
2018-07-09T14:47:55.995Z,1.20
2018-07-09T14:50:25.221Z,0.80
2018-07-09T14:52:54.562Z,0.90
2018-07-09T14:55:23.862Z,0.90
2018-07-09T14:57:53.270Z,0.83
2018-07-09T15:00:22.625Z,0.90
2018-07-09T15:02:54.379Z,0.90
2018-07-09T15:05:23.608Z,1.17
2018-07-09T15:07:52.975Z,0.97
2018-07-09T15:10:22.243Z,0.97
2018-07-09T15:12:51.551Z,1.00
2018-07-09T15:15:20.814Z,1.10
2018-07-09T15:17:50.232Z,1.00
2018-07-09T15:20:19.674Z,0.80
2018-07-09T15:22:49.063Z,1.00
2018-07-09T15:25:18.349Z,1.00
2018-07-09T15:27:47.654Z,0.80
2018-07-09T15:30:16.951Z,1.00
2018-07-09T15:32:46.145Z,1.20
2018-07-09T15:35:15.446Z,1.10
2018-07-09T15:37:44.850Z,1.07
2018-07-09T15:40:14.221Z,1.13
2018-07-09T15:42:43.755Z,1.03
2018-07-09T15:45:13.082Z,0.77
2018-07-09T15:47:42.596Z,0.90
2018-07-09T15:50:11.858Z,0.90
2018-07-09T15:52:41.177Z,1.00
2018-07-09T15:55:10.462Z,0.83
2018-07-09T15:57:39.983Z,0.90
2018-07-09T16:00:09.271Z,0.70
2018-07-09T16:02:39.503Z,0.80
2018-07-09T16:05:08.965Z,0.93
2018-07-09T16:07:38.463Z,1.07
2018-07-09T16:10:08.019Z,0.80
2018-07-09T16:12:37.514Z,1.00
2018-07-09T16:15:07.201Z,0.80
2018-07-09T16:17:36.554Z,0.70
2018-07-09T16:20:05.806Z,0.73
2018-07-09T16:22:34.979Z,0.70
2018-07-09T16:25:04.314Z,0.80
2018-07-09T16:27:33.626Z,1.10
2018-07-09T16:30:03.123Z,0.80
2018-07-09T16:32:32.458Z,0.90
2018-07-09T16:35:01.840Z,0.80
2018-07-09T16:37:30.849Z,0.70
2018-07-09T16:39:59.816Z,0.67
2018-07-09T16:42:28.925Z,0.70
2018-07-09T16:44:58.201Z,0.73
2018-07-09T16:47:27.518Z,0.90
2018-07-09T16:49:56.893Z,1.17
2018-07-09T16:52:26.277Z,0.93
2018-07-09T16:54:55.560Z,0.60
2018-07-09T16:57:24.813Z,0.60
2018-07-09T16:59:54.124Z,0.83
2018-07-09T17:02:23.422Z,0.87
2018-07-09T17:04:52.671Z,1.00
2018-07-09T17:07:21.948Z,1.00
2018-07-09T17:09:51.174Z,0.70
2018-07-09T17:12:20.570Z,1.30
2018-07-09T17:14:49.902Z,1.00
2018-07-09T17:17:19.242Z,1.20
2018-07-09T17:19:48.743Z,1.03
2018-07-09T17:22:18.242Z,1.13
2018-07-09T17:24:47.931Z,2.37
2018-07-09T17:27:17.815Z,1.77
2018-07-09T17:29:47.129Z,1.00
2018-07-09T17:32:16.578Z,0.83
2018-07-09T17:34:45.846Z,0.90
2018-07-09T17:37:15.294Z,1.03
2018-07-09T17:39:44.703Z,1.03
2018-07-09T17:42:13.953Z,0.87
2018-07-09T17:44:43.390Z,1.30
2018-07-09T17:47:12.753Z,1.20
2018-07-09T17:49:42.003Z,1.20
2018-07-09T17:52:11.270Z,1.00
2018-07-09T17:54:40.716Z,1.20
2018-07-09T17:57:10.073Z,1.17
2018-07-09T17:59:39.547Z,1.27
2018-07-09T18:02:08.866Z,1.37
2018-07-09T18:04:38.075Z,1.20
2018-07-09T18:07:07.595Z,1.87
2018-07-09T18:09:36.995Z,1.50
2018-07-09T18:12:06.380Z,1.30
2018-07-09T18:14:35.726Z,1.40
2018-07-09T18:17:05.019Z,1.70
2018-07-09T18:19:34.520Z,1.20
2018-07-09T18:22:03.865Z,1.67
2018-07-09T18:24:33.202Z,1.50
2018-07-09T18:27:02.480Z,1.60
2018-07-09T18:29:31.710Z,1.20
2018-07-09T18:32:01.523Z,1.50
2018-07-09T18:34:30.824Z,1.73
2018-07-09T18:37:00.194Z,1.27
2018-07-09T18:39:29.409Z,1.70
2018-07-09T18:41:58.685Z,1.50
2018-07-09T18:44:27.921Z,1.67
2018-07-09T18:46:57.318Z,1.57
2018-07-09T18:49:26.566Z,1.97
2018-07-09T18:51:55.812Z,1.43
2018-07-09T18:54:26.044Z,1.57
2018-07-09T18:56:55.449Z,2.07
2018-07-09T18:59:24.773Z,1.70
2018-07-09T19:01:54.036Z,1.73
2018-07-09T19:04:23.375Z,1.63
2018-07-09T19:06:57.532Z,1.80
2018-07-09T19:09:27.450Z,1.50
2018-07-09T19:11:56.643Z,1.63
2018-07-09T19:14:31.309Z,1.70
2018-07-09T19:18:18.430Z,1.50
2018-07-09T19:21:33.089Z,2.03
2018-07-09T19:24:01.442Z,1.70
2018-07-09T19:26:29.033Z,1.70
2018-07-09T19:28:56.900Z,1.90
2018-07-09T19:31:24.670Z,1.57
2018-07-09T19:33:52.537Z,1.80
2018-07-09T19:36:20.310Z,1.63
2018-07-09T19:38:48.080Z,1.83
2018-07-09T19:41:15.930Z,1.93
2018-07-09T19:43:43.797Z,1.53
2018-07-09T19:46:11.438Z,2.00
2018-07-09T19:48:39.223Z,1.43
2018-07-09T19:51:07.328Z,1.70
2018-07-09T19:53:35.063Z,1.80
2018-07-09T19:56:03.146Z,1.50
2018-07-09T19:58:30.790Z,1.60
2018-07-09T20:00:58.551Z,1.90
2018-07-09T20:03:26.420Z,1.87
2018-07-09T20:05:54.189Z,1.67
2018-07-09T20:08:21.953Z,1.80
2018-07-09T20:10:54.556Z,1.90
2018-07-09T20:13:27.694Z,1.73
2018-07-09T20:16:00.710Z,2.10
2018-07-09T20:18:28.473Z,1.40
2018-07-09T20:20:56.261Z,1.60
2018-07-09T20:23:24.106Z,1.83
2018-07-09T20:25:51.972Z,2.00
2018-07-09T20:28:19.742Z,1.70
2018-07-09T20:30:47.604Z,1.87
2018-07-09T20:33:15.542Z,2.10
2018-07-09T20:35:43.234Z,2.57
2018-07-09T20:38:11.001Z,1.87
2018-07-09T20:40:38.873Z,2.20
2018-07-09T20:43:06.573Z,1.93
2018-07-09T20:45:34.570Z,1.90
2018-07-09T20:48:02.266Z,2.07
2018-07-09T20:50:30.083Z,1.97
2018-07-09T20:52:57.689Z,1.90
2018-07-09T20:55:25.410Z,2.10
2018-07-09T20:57:53.125Z,2.00
2018-07-09T21:00:21.015Z,2.10
2018-07-09T21:02:48.812Z,2.27
2018-07-09T21:05:16.617Z,2.30
2018-07-09T21:07:44.351Z,2.00
2018-07-09T21:10:12.147Z,2.20
2018-07-09T21:12:44.830Z,2.50
2018-07-09T21:15:12.849Z,2.30
2018-07-09T21:17:40.558Z,1.90
2018-07-09T21:20:08.321Z,2.03
2018-07-09T21:22:36.292Z,2.13
2018-07-09T21:25:04.112Z,2.43
2018-07-09T21:27:31.823Z,2.43
2018-07-09T21:29:59.615Z,2.03
2018-07-09T21:32:27.664Z,2.40
2018-07-09T21:34:55.532Z,2.60
2018-07-09T21:37:23.259Z,2.80
2018-07-09T21:39:51.156Z,2.50
2018-07-09T21:42:18.823Z,2.20
2018-07-09T21:44:46.628Z,2.50
2018-07-09T21:47:14.245Z,2.60
2018-07-09T21:49:41.903Z,2.67
2018-07-09T21:52:09.798Z,2.50
2018-07-09T21:54:37.592Z,2.50
2018-07-09T21:57:05.408Z,2.30
2018-07-09T21:59:33.170Z,2.47
2018-07-09T22:02:00.994Z,2.30
2018-07-09T22:04:28.704Z,2.33
2018-07-09T22:06:56.567Z,2.90
2018-07-09T22:09:24.225Z,2.50
2018-07-09T22:11:52.091Z,2.47
2018-07-09T22:14:19.758Z,2.17
2018-07-09T22:16:47.640Z,2.23
2018-07-09T22:19:15.902Z,2.83
2018-07-09T22:21:44.081Z,2.40
2018-07-09T22:24:11.739Z,2.10
2018-07-09T22:26:39.605Z,2.60
2018-07-09T22:29:07.437Z,2.70
2018-07-09T22:31:36.696Z,2.50
2018-07-09T22:34:06.033Z,2.20
2018-07-09T22:36:35.373Z,2.37
2018-07-09T22:39:05.302Z,2.20
2018-07-09T22:41:34.862Z,1.97
2018-07-09T22:44:16.272Z,2.10
2018-07-09T22:46:45.785Z,2.27
2018-07-09T22:49:15.275Z,2.10
2018-07-09T22:51:44.720Z,2.17
2018-07-09T22:54:14.045Z,2.13
2018-07-09T22:56:43.455Z,2.10
2018-07-09T22:59:12.763Z,2.30
2018-07-09T23:01:42.204Z,2.00
2018-07-09T23:04:11.513Z,1.93
2018-07-09T23:06:40.805Z,2.33
2018-07-09T23:09:55.675Z,2.17
2018-07-09T23:13:37.883Z,1.93
2018-07-09T23:16:44.359Z,2.03
2018-07-09T23:19:28.369Z,2.30
2018-07-09T23:22:08.666Z,2.20
2018-07-09T23:24:36.424Z,2.87
2018-07-09T23:27:04.291Z,2.30
2018-07-09T23:29:32.064Z,2.70
2018-07-09T23:31:59.926Z,2.00
2018-07-09T23:34:27.794Z,2.70
2018-07-09T23:36:55.553Z,1.60
2018-07-09T23:39:23.420Z,2.30
2018-07-09T23:41:51.332Z,2.30
2018-07-09T23:44:19.055Z,2.00
2018-07-09T23:46:46.919Z,2.57
2018-07-09T23:49:14.685Z,2.10
2018-07-09T23:51:42.344Z,2.27
2018-07-09T23:54:10.001Z,2.30
2018-07-09T23:58:53.413Z,2.53
